Time;durP1;ratioP1;P1;durP2;ratioP2;P2;SDS_P1;SDS_P2;PMS_P1;PMS_P2;Temp;Humidity;BMP_temperature;BMP_pressure;BME280_temperature;BME280_humidity;BME280_pressure;Samples;Min_cycle;Max_cycle;Signal;HPM_P1;HPM_P2
2023/09/15 00:01:44;;;;;;;10.38;6.18;;;17.10;69.70;;;;;;5024987;28;20166;-72
2023/09/15 00:04:11;;;;;;;10.82;6.15;;;17.10;69.60;;;;;;5035031;28;20365;-73
2023/09/15 00:06:37;;;;;;;11.38;6.30;;;17.10;69.60;;;;;;5047868;28;20037;-72
2023/09/15 00:09:18;;;;;;;9.68;5.43;;;17.10;69.60;;;;;;5036737;28;20332;-73
2023/09/15 00:11:47;;;;;;;11.75;6.22;;;17.10;69.40;;;;;;5049308;28;20040;-72
2023/09/15 00:14:14;;;;;;;11.98;6.13;;;17.10;69.40;;;;;;5044215;28;20018;-72
2023/09/15 00:16:43;;;;;;;11.65;6.40;;;17.10;69.40;;;;;;5045166;28;20104;-72
2023/09/15 00:19:14;;;;;;;10.25;6.07;;;17.10;69.40;;;;;;5031762;28;20045;-72
2023/09/15 00:21:40;;;;;;;;;;;17.10;69.40;;;;;;5033019;28;20033;-73
2023/09/15 00:24:06;;;;;;;9.23;5.65;;;17.10;69.40;;;;;;5031856;28;20258;-72
2023/09/15 00:26:33;;;;;;;9.73;5.85;;;17.00;69.50;;;;;;5032099;28;20038;-72
2023/09/15 00:28:59;;;;;;;12.07;6.68;;;17.00;69.60;;;;;;5047946;28;20033;-72
2023/09/15 00:31:26;;;;;;;12.38;6.10;;;17.00;69.70;;;;;;5044513;28;20033;-72
2023/09/15 00:33:52;;;;;;;9.48;5.85;;;16.90;69.70;;;;;;5033114;28;20094;-72
2023/09/15 00:36:18;;;;;;;9.93;5.68;;;16.90;69.80;;;;;;5015056;28;20715;-72
2023/09/15 00:38:44;;;;;;;9.23;5.75;;;16.90;69.90;;;;;;5031954;28;20026;-72
2023/09/15 00:41:10;;;;;;;9.88;5.85;;;16.90;69.90;;;;;;5033432;28;20465;-72
2023/09/15 00:43:35;;;;;;;10.75;5.68;;;16.90;70.00;;;;;;5032269;28;20033;-72
2023/09/15 00:46:02;;;;;;;10.88;5.75;;;16.90;70.00;;;;;;5022455;28;20029;-72
2023/09/15 00:48:28;;;;;;;9.60;5.35;;;16.90;70.00;;;;;;5014831;28;20191;-72
2023/09/15 00:50:55;;;;;;;9.15;6.25;;;16.90;70.00;;;;;;5049209;28;20044;-72
2023/09/15 00:53:21;;;;;;;8.63;5.30;;;16.90;70.00;;;;;;5033080;28;20374;-72
2023/09/15 00:55:51;;;;;;;9.05;5.32;;;16.80;70.00;;;;;;5022098;28;20354;-72
2023/09/15 00:58:19;;;;;;;10.20;5.60;;;16.80;70.00;;;;;;5031097;28;20132;-72
2023/09/15 01:00:46;;;;;;;11.00;5.78;;;16.90;70.00;;;;;;5038189;28;20343;-72
2023/09/15 01:03:17;;;;;;;10.52;5.90;;;16.80;69.90;;;;;;5016178;28;20030;-72
2023/09/15 01:05:45;;;;;;;9.30;5.70;;;16.80;70.00;;;;;;5044865;28;20047;-72
2023/09/15 01:08:12;;;;;;;9.75;5.63;;;16.80;70.00;;;;;;5036924;28;20398;-72
2023/09/15 01:10:38;;;;;;;11.52;5.43;;;16.80;70.00;;;;;;5018431;28;20033;-72
2023/09/15 01:13:05;;;;;;;9.70;5.43;;;16.80;70.10;;;;;;5036154;28;20402;-72
2023/09/15 01:15:33;;;;;;;10.48;6.07;;;16.70;70.00;;;;;;5033927;28;20052;-72
2023/09/15 01:18:11;;;;;;;9.25;5.38;;;16.70;70.10;;;;;;5036217;28;20033;-72
2023/09/15 01:21:03;;;;;;;10.90;5.63;;;16.70;70.10;;;;;;5051594;28;20037;-72
2023/09/15 01:23:32;;;;;;;11.33;6.10;;;16.70;70.20;;;;;;5032482;28;20025;-72
2023/09/15 01:26:05;;;;;;;10.15;5.32;;;16.60;70.20;;;;;;5016973;28;20029;-72
2023/09/15 01:29:09;;;;;;;9.68;5.60;;;16.60;70.10;;;;;;5052178;28;20048;-72
2023/09/15 01:31:37;;;;;;;10.13;5.55;;;16.60;70.10;;;;;;5023938;28;20033;-72
2023/09/15 01:34:03;;;;;;;8.68;5.32;;;16.60;70.30;;;;;;5034074;28;20067;-72
2023/09/15 01:36:28;;;;;;;12.07;5.75;;;16.60;70.30;;;;;;5049333;28;20060;-72
2023/09/15 01:38:54;;;;;;;8.80;5.25;;;16.60;70.40;;;;;;5051775;28;20025;-72
2023/09/15 01:41:21;;;;;;;12.38;5.75;;;16.50;70.40;;;;;;5032651;28;20107;-72
2023/09/15 01:43:47;;;;;;;8.55;5.18;;;16.50;70.40;;;;;;5034975;28;20068;-72
2023/09/15 01:46:13;;;;;;;11.98;6.10;;;16.50;70.50;;;;;;5032460;28;20362;-72
2023/09/15 01:48:39;;;;;;;9.90;5.35;;;16.50;70.50;;;;;;5018839;28;20033;-72
2023/09/15 01:51:05;;;;;;;9.82;4.72;;;16.50;70.50;;;;;;5014371;28;20029;-72
2023/09/15 01:53:32;;;;;;;11.02;5.88;;;16.50;70.50;;;;;;5030901;28;20493;-72
2023/09/15 01:55:57;;;;;;;9.98;5.43;;;16.40;70.50;;;;;;5033916;28;20446;-72
2023/09/15 01:58:24;;;;;;;11.80;5.97;;;16.50;70.50;;;;;;5051331;28;20454;-72
2023/09/15 02:00:51;;;;;;;9.00;5.35;;;16.50;70.50;;;;;;5033469;28;20029;-72
2023/09/15 02:03:18;;;;;;;9.63;5.32;;;16.50;70.50;;;;;;5035359;28;20025;-72
2023/09/15 02:05:44;;;;;;;12.98;5.82;;;16.40;70.40;;;;;;5016672;28;20087;-72
2023/09/15 02:08:10;;;;;;;10.38;5.78;;;16.40;70.50;;;;;;5036053;28;20029;-72
2023/09/15 02:10:36;;;;;;;10.25;5.32;;;16.40;70.50;;;;;;5049821;28;20037;-72
2023/09/15 02:13:02;;;;;;;10.20;5.53;;;16.40;70.40;;;;;;5034811;28;20032;-72
2023/09/15 02:15:29;;;;;;;10.77;5.30;;;16.40;70.40;;;;;;5035166;28;20114;-72
2023/09/15 02:17:59;;;;;;;10.50;5.63;;;16.50;70.40;;;;;;5032594;28;20113;-72
2023/09/15 02:20:25;;;;;;;9.30;4.88;;;16.40;70.40;;;;;;5033130;28;20029;-72
2023/09/15 02:22:50;;;;;;;10.75;5.22;;;16.40;70.40;;;;;;5048541;28;20026;-72
2023/09/15 02:25:16;;;;;;;10.68;5.30;;;16.40;70.50;;;;;;5034864;28;20041;-72
2023/09/15 02:27:42;;;;;;;9.45;5.38;;;16.40;70.60;;;;;;5032833;28;20022;-72
2023/09/15 02:30:09;;;;;;;9.45;5.38;;;16.40;70.60;;;;;;5032465;28;20095;-72
2023/09/15 02:32:35;;;;;;;9.60;5.55;;;16.40;70.60;;;;;;5032980;28;20025;-72
2023/09/15 02:35:00;;;;;;;10.35;5.60;;;16.30;70.60;;;;;;5036183;28;20021;-72
2023/09/15 02:37:26;;;;;;;9.35;6.00;;;16.30;70.60;;;;;;5034973;28;20394;-72
2023/09/15 02:39:53;;;;;;;11.52;5.60;;;16.30;70.60;;;;;;5034838;28;20026;-72
2023/09/15 02:42:19;;;;;;;9.90;5.38;;;16.30;70.70;;;;;;5011936;28;20048;-72
2023/09/15 02:44:45;;;;;;;10.18;5.60;;;16.20;70.60;;;;;;5033616;28;20071;-72
2023/09/15 02:47:11;;;;;;;12.25;5.28;;;16.30;70.70;;;;;;5034131;28;20438;-72
2023/09/15 02:49:37;;;;;;;13.15;5.30;;;16.30;70.70;;;;;;5014953;28;20087;-72
2023/09/15 02:52:05;;;;;;;9.20;5.20;;;16.30;70.70;;;;;;5009847;28;20037;-72
2023/09/15 02:54:31;;;;;;;9.23;5.00;;;16.30;70.70;;;;;;5033527;28;20048;-72
2023/09/15 02:56:57;;;;;;;10.70;5.43;;;16.20;70.60;;;;;;5030521;28;20053;-72
2023/09/15 02:59:23;;;;;;;9.23;5.25;;;16.20;70.50;;;;;;5033963;28;20038;-72
2023/09/15 03:01:50;;;;;;;10.05;5.28;;;16.30;70.60;;;;;;5034528;28;20109;-72
2023/09/15 03:04:19;;;;;;;10.10;5.72;;;16.20;70.60;;;;;;5030351;28;20021;-72
2023/09/15 03:06:47;;;;;;;12.05;5.38;;;16.20;70.60;;;;;;5030496;28;20087;-72
2023/09/15 03:09:13;;;;;;;10.25;5.30;;;16.20;70.70;;;;;;5018986;28;20331;-72
2023/09/15 03:11:38;;;;;;;10.85;5.07;;;16.20;70.70;;;;;;5047810;28;20029;-72
2023/09/15 03:14:05;;;;;;;7.93;4.28;;;16.20;70.70;;;;;;5034189;28;20454;-73
2023/09/15 03:16:31;;;;;;;10.23;4.75;;;16.20;70.70;;;;;;5032272;28;20029;-72
2023/09/15 03:18:58;;;;;;;10.73;5.10;;;16.20;70.70;;;;;;5010178;28;20047;-72
2023/09/15 03:21:25;;;;;;;9.68;5.38;;;16.10;70.70;;;;;;5036513;28;20105;-72
2023/09/15 03:23:51;;;;;;;9.27;4.93;;;16.10;70.70;;;;;;5034221;28;20045;-72
2023/09/15 03:26:17;;;;;;;10.63;4.85;;;16.10;70.70;;;;;;5035173;28;20076;-72
2023/09/15 03:28:47;;;;;;;9.32;5.65;;;16.10;70.70;;;;;;5005511;28;20106;-72
2023/09/15 03:31:13;;;;;;;10.52;5.05;;;16.10;70.70;;;;;;5033794;28;20076;-72
2023/09/15 03:33:39;;;;;;;10.30;4.97;;;16.00;70.80;;;;;;5049653;28;20036;-72
2023/09/15 03:36:07;;;;;;;12.18;5.13;;;16.00;70.80;;;;;;5049147;28;20529;-72
2023/09/15 03:38:33;;;;;;;10.85;5.35;;;16.00;70.80;;;;;;5032646;28;20025;-72
2023/09/15 03:41:00;;;;;;;10.73;5.20;;;16.00;70.80;;;;;;5033562;28;20122;-72
2023/09/15 03:43:25;;;;;;;9.05;4.70;;;16.00;70.80;;;;;;5015871;28;20029;-72
2023/09/15 03:45:52;;;;;;;9.32;4.80;;;16.00;70.90;;;;;;5032625;28;20037;-72
2023/09/15 03:48:18;;;;;;;9.95;4.72;;;16.00;70.80;;;;;;5046939;28;20032;-72
2023/09/15 03:50:47;;;;;;;12.20;5.72;;;16.00;70.70;;;;;;5033651;28;20462;-72
2023/09/15 03:53:13;;;;;;;8.00;4.40;;;16.00;70.70;;;;;;5042272;28;20042;-72
2023/09/15 03:55:39;;;;;;;11.27;5.28;;;16.00;70.70;;;;;;5043253;28;20031;-72
2023/09/15 03:58:05;;;;;;;9.98;4.85;;;15.90;70.70;;;;;;5043255;28;20029;-72
2023/09/15 04:00:31;;;;;;;8.30;4.10;;;15.90;70.70;;;;;;5033168;28;20112;-72
2023/09/15 04:02:56;;;;;;;10.88;4.80;;;15.90;70.70;;;;;;5016016;28;20021;-72
2023/09/15 04:05:22;;;;;;;11.90;5.30;;;15.90;70.60;;;;;;5034356;28;20120;-72
2023/09/15 04:07:48;;;;;;;10.43;4.85;;;15.90;70.60;;;;;;5031136;28;20053;-72
2023/09/15 04:10:14;;;;;;;8.35;4.43;;;15.90;70.50;;;;;;5034214;28;20033;-72
2023/09/15 04:12:41;;;;;;;10.15;4.75;;;15.90;70.50;;;;;;5045560;28;20031;-72
2023/09/15 04:15:09;;;;;;;10.45;4.35;;;15.90;70.50;;;;;;5019510;28;20017;-72
2023/09/15 04:17:35;;;;;;;9.85;4.88;;;15.90;70.50;;;;;;5035995;28;20454;-72
2023/09/15 04:20:02;;;;;;;9.50;4.95;;;15.90;70.50;;;;;;5032926;28;20053;-72
2023/09/15 04:22:29;;;;;;;10.85;4.90;;;15.90;70.50;;;;;;5032390;28;20362;-71
2023/09/15 04:24:55;;;;;;;12.18;4.90;;;15.90;70.50;;;;;;5048785;28;20116;-71
2023/09/15 04:27:21;;;;;;;9.63;4.75;;;15.90;70.50;;;;;;5033268;28;20350;-71
2023/09/15 04:29:56;;;;;;;9.52;4.65;;;15.90;70.50;;;;;;5030193;28;20029;-72
2023/09/15 04:32:26;;;;;;;9.20;4.45;;;15.90;70.50;;;;;;5032602;28;20057;-73
2023/09/15 04:34:53;;;;;;;10.10;4.90;;;15.80;70.50;;;;;;5032771;28;20029;-72
2023/09/15 04:37:21;;;;;;;9.90;4.80;;;15.80;70.50;;;;;;5031473;28;20417;-72
2023/09/15 04:39:51;;;;;;;9.18;4.80;;;15.80;70.50;;;;;;5014728;28;20049;-72
2023/09/15 04:42:17;;;;;;;9.93;4.95;;;15.80;70.50;;;;;;5050878;28;20025;-72
2023/09/15 04:44:43;;;;;;;9.10;4.45;;;15.80;70.50;;;;;;5051726;28;20026;-72
2023/09/15 04:47:12;;;;;;;10.10;4.93;;;15.80;70.60;;;;;;5044618;28;20072;-72
2023/09/15 04:49:39;;;;;;;9.60;5.38;;;15.80;70.50;;;;;;5033158;28;20411;-73
2023/09/15 04:52:05;;;;;;;10.07;4.95;;;15.70;70.50;;;;;;5019801;28;20121;-72
2023/09/15 04:54:31;;;;;;;9.30;4.47;;;15.70;70.60;;;;;;5035937;28;20160;-72
2023/09/15 04:56:57;;;;;;;10.57;5.22;;;15.70;70.60;;;;;;5052851;28;20369;-73
2023/09/15 04:59:25;;;;;;;11.20;4.97;;;15.70;70.50;;;;;;5048818;28;20112;-72
2023/09/15 05:01:51;;;;;;;11.05;4.88;;;15.70;70.50;;;;;;5053046;28;20034;-71
2023/09/15 05:04:19;;;;;;;12.00;4.70;;;15.70;70.60;;;;;;5051877;28;20052;-71
2023/09/15 05:06:45;;;;;;;10.85;5.40;;;15.60;70.70;;;;;;5052095;28;20063;-70
2023/09/15 05:09:11;;;;;;;9.80;5.63;;;15.60;70.70;;;;;;5031469;28;20041;-70
2023/09/15 05:11:37;;;;;;;11.02;4.88;;;15.60;70.80;;;;;;5046589;28;20025;-72
2023/09/15 05:14:04;;;;;;;10.35;5.20;;;15.60;70.80;;;;;;5027069;28;20021;-73
2023/09/15 05:16:30;;;;;;;8.52;4.32;;;15.60;70.80;;;;;;5029505;28;20025;-72
2023/09/15 05:18:56;;;;;;;11.30;4.88;;;15.60;70.80;;;;;;5029395;28;20446;-72
2023/09/15 05:21:22;;;;;;;9.20;5.43;;;15.60;70.80;;;;;;5048225;28;20040;-70
2023/09/15 05:23:48;;;;;;;9.70;5.35;;;15.60;70.80;;;;;;5032178;28;20025;-69
2023/09/15 05:26:15;;;;;;;9.15;5.95;;;15.60;70.80;;;;;;5033238;28;20029;-75
2023/09/15 05:28:41;;;;;;;10.18;5.35;;;15.60;70.70;;;;;;5033602;28;20036;-77
2023/09/15 05:31:07;;;;;;;10.13;5.30;;;15.60;70.70;;;;;;5031126;28;20029;-71
2023/09/15 05:33:35;;;;;;;10.38;4.70;;;15.60;70.60;;;;;;5045458;28;20028;-74
2023/09/15 05:36:00;;;;;;;9.75;4.93;;;15.60;70.70;;;;;;5047459;28;20025;-76
2023/09/15 05:38:27;;;;;;;11.82;5.68;;;15.60;70.60;;;;;;5047692;28;20021;-74
2023/09/15 05:40:52;;;;;;;10.05;5.32;;;15.60;70.70;;;;;;5046395;28;20022;-75
2023/09/15 05:43:20;;;;;;;10.43;4.93;;;15.60;70.60;;;;;;5032648;28;20449;-76
2023/09/15 05:45:47;;;;;;;10.02;5.28;;;15.60;70.70;;;;;;5034272;28;20038;-75
2023/09/15 05:48:17;;;;;;;10.18;5.25;;;15.70;70.70;;;;;;5034721;28;20112;-76
2023/09/15 05:50:44;;;;;;;10.02;4.85;;;15.70;71.40;;;;;;5030901;28;20054;-75
2023/09/15 05:53:10;;;;;;;9.73;4.93;;;15.60;70.70;;;;;;5033321;28;20365;-76
2023/09/15 05:55:35;;;;;;;9.20;4.60;;;15.70;70.80;;;;;;5035201;28;20025;-75
2023/09/15 05:58:01;;;;;;;9.88;5.22;;;15.70;70.80;;;;;;5019988;28;20401;-75
2023/09/15 06:00:27;;;;;;;11.38;6.10;;;15.70;70.70;;;;;;5047560;28;20029;-76
2023/09/15 06:02:52;;;;;;;9.48;5.20;;;15.70;70.70;;;;;;5033530;28;20127;-81
2023/09/15 06:05:20;;;;;;;9.68;5.15;;;15.70;70.70;;;;;;5032749;28;20025;-81
2023/09/15 06:07:49;;;;;;;11.32;5.70;;;15.70;70.70;;;;;;5030262;28;20022;-81
2023/09/15 06:10:15;;;;;;;10.82;5.22;;;15.70;70.70;;;;;;5048654;28;20438;-78
2023/09/15 06:12:41;;;;;;;12.80;5.78;;;15.80;70.70;;;;;;5023279;28;20025;-76
2023/09/15 06:15:07;;;;;;;11.50;5.55;;;15.80;70.70;;;;;;5032869;28;20100;-70
2023/09/15 06:17:34;;;;;;;11.35;6.05;;;15.80;70.70;;;;;;5027418;28;20056;-75
2023/09/15 06:20:00;;;;;;;10.27;5.43;;;15.90;70.70;;;;;;5029360;28;20096;-76
2023/09/15 06:22:26;;;;;;;9.43;5.68;;;15.90;70.70;;;;;;5029062;28;21079;-77
2023/09/15 06:24:52;;;;;;;9.88;5.22;;;15.90;70.70;;;;;;5023916;28;20034;-78
2023/09/15 06:27:18;;;;;;;10.70;5.75;;;15.90;70.70;;;;;;5029727;28;20027;-73
2023/09/15 06:29:44;;;;;;;11.82;6.30;;;15.90;70.70;;;;;;5029301;28;20036;-74
2023/09/15 06:32:10;;;;;;;8.88;5.43;;;16.00;70.70;;;;;;5040560;28;20034;-76
2023/09/15 06:34:35;;;;;;;11.70;6.13;;;16.10;70.60;;;;;;5029098;28;20407;-76
2023/09/15 06:37:01;;;;;;;10.25;5.50;;;16.10;70.50;;;;;;5045981;28;20028;-76
2023/09/15 06:39:28;;;;;;;11.73;6.10;;;16.20;70.40;;;;;;5031620;28;20021;-74
2023/09/15 06:41:54;;;;;;;10.32;5.55;;;16.30;70.40;;;;;;5028932;28;20064;-78
2023/09/15 06:44:23;;;;;;;10.55;5.60;;;16.30;70.40;;;;;;5026711;28;20041;-77
2023/09/15 06:46:49;;;;;;;10.23;5.63;;;16.40;70.30;;;;;;5030625;28;20110;-79
2023/09/15 06:49:21;;;;;;;11.13;6.55;;;16.40;70.20;;;;;;5032235;28;20632;-76
2023/09/15 06:51:50;;;;;;;12.10;5.82;;;16.50;70.20;;;;;;5028250;28;20036;-77
2023/09/15 06:54:15;;;;;;;11.45;6.15;;;16.50;70.00;;;;;;5041509;28;20098;-76
2023/09/15 06:56:41;;;;;;;10.65;5.78;;;16.60;69.90;;;;;;5029017;28;20045;-78
2023/09/15 06:59:07;;;;;;;11.95;5.40;;;16.70;69.90;;;;;;5030295;28;20155;-78
2023/09/15 07:01:33;;;;;;;13.48;8.10;;;16.80;69.70;;;;;;5028208;28;20454;-76
2023/09/15 07:03:58;;;;;;;15.43;11.02;;;16.80;69.50;;;;;;5027095;28;20075;-77
2023/09/15 07:06:24;;;;;;;21.60;13.82;;;16.90;69.40;;;;;;5032628;28;20029;-77
2023/09/15 07:08:50;;;;;;;22.25;14.02;;;17.00;69.30;;;;;;5035107;28;20038;-77
2023/09/15 07:11:16;;;;;;;19.42;13.85;;;17.10;69.20;;;;;;5035091;28;20057;-77
2023/09/15 07:13:42;;;;;;;16.05;10.52;;;17.10;69.00;;;;;;5033182;28;20466;-78
2023/09/15 07:16:09;;;;;;;16.95;10.77;;;17.20;68.90;;;;;;5032804;28;20030;-78
2023/09/15 07:18:35;;;;;;;13.00;8.23;;;17.30;68.90;;;;;;5034516;28;20041;-78
2023/09/15 07:21:01;;;;;;;11.60;7.03;;;17.30;68.70;;;;;;5033862;28;20026;-78
2023/09/15 07:23:27;;;;;;;12.82;6.05;;;17.40;68.60;;;;;;5049960;28;20091;-79
2023/09/15 07:25:52;;;;;;;10.63;5.85;;;17.50;68.50;;;;;;5032506;28;20026;-79
2023/09/15 07:28:18;;;;;;;10.55;5.65;;;17.50;68.30;;;;;;5033321;28;20108;-79
2023/09/15 07:30:44;;;;;;;10.45;5.53;;;17.70;68.20;;;;;;5034281;28;20026;-79
2023/09/15 07:33:10;;;;;;;11.00;5.97;;;17.70;68.00;;;;;;5031971;28;20398;-79
2023/09/15 07:35:36;;;;;;;12.05;6.53;;;17.80;67.80;;;;;;5043461;28;20430;-78
2023/09/15 07:38:03;;;;;;;10.30;5.43;;;17.90;67.60;;;;;;5034108;28;20032;-78
2023/09/15 07:40:29;;;;;;;11.30;5.80;;;18.00;67.40;;;;;;5028114;28;20034;-81
2023/09/15 07:42:54;;;;;;;13.45;6.05;;;18.00;67.20;;;;;;5016821;28;20450;-81
2023/09/15 07:45:20;;;;;;;10.55;5.78;;;18.20;67.00;;;;;;5031182;28;20029;-70
2023/09/15 07:47:46;;;;;;;10.85;5.18;;;18.30;66.80;;;;;;5042025;28;20034;-77
2023/09/15 07:50:13;;;;;;;10.77;5.57;;;18.50;66.50;;;;;;5031682;28;20033;-78
2023/09/15 07:52:40;;;;;;;11.00;5.50;;;18.60;66.10;;;;;;5031168;28;20354;-77
2023/09/15 07:55:06;;;;;;;9.88;5.25;;;18.80;65.70;;;;;;5026685;28;20028;-70
2023/09/15 07:57:32;;;;;;;10.27;5.10;;;19.00;65.20;;;;;;5046605;28;20108;-80
2023/09/15 07:59:59;;;;;;;11.32;5.03;;;19.20;64.90;;;;;;5032631;28;20407;-80
2023/09/15 08:02:26;;;;;;;10.00;4.80;;;19.40;64.50;;;;;;5015591;28;20034;-81
2023/09/15 08:04:53;;;;;;;10.00;4.78;;;19.60;64.00;;;;;;5020256;28;20036;-79
2023/09/15 08:07:19;;;;;;;9.45;4.60;;;19.80;63.50;;;;;;5037669;28;20447;-78
2023/09/15 08:09:45;;;;;;;10.25;4.55;;;20.00;63.80;;;;;;5028349;28;20080;-79
2023/09/15 08:12:11;;;;;;;10.88;4.75;;;20.20;62.70;;;;;;5032272;28;20071;-77
2023/09/15 08:14:38;;;;;;;9.32;4.68;;;20.40;62.20;;;;;;5028746;28;20030;-79
2023/09/15 08:17:03;;;;;;;11.23;4.88;;;20.50;61.60;;;;;;5032663;28;20415;-79
2023/09/15 08:19:29;;;;;;;9.77;4.85;;;20.80;61.30;;;;;;5035336;28;20029;-79
2023/09/15 08:21:55;;;;;;;8.85;4.30;;;21.00;60.90;;;;;;5035356;28;20120;-80
2023/09/15 08:24:21;;;;;;;11.27;4.38;;;21.10;60.40;;;;;;5033293;28;20021;-79
2023/09/15 08:26:47;;;;;;;8.95;4.30;;;21.30;60.00;;;;;;5052252;28;20431;-78
2023/09/15 08:29:13;;;;;;;7.97;4.25;;;21.40;59.70;;;;;;5036719;28;20034;-78
2023/09/15 08:31:40;;;;;;;9.10;4.47;;;21.60;59.40;;;;;;5014810;28;20036;-78
2023/09/15 08:34:06;;;;;;;11.18;4.38;;;21.70;59.10;;;;;;5033617;28;20021;-82
2023/09/15 08:36:31;;;;;;;7.78;4.05;;;21.80;58.90;;;;;;5028285;28;20044;-81
2023/09/15 08:38:58;;;;;;;11.75;4.32;;;21.80;58.90;;;;;;5044087;28;21669;-74
2023/09/15 08:41:39;;;;;;;9.10;4.25;;;21.80;59.00;;;;;;5047590;28;20029;-70
2023/09/15 08:44:16;;;;;;;9.30;4.13;;;21.80;59.00;;;;;;5032141;28;20466;-76
2023/09/15 08:46:43;;;;;;;9.10;4.28;;;21.80;59.10;;;;;;5030446;28;20037;-76
2023/09/15 08:49:09;;;;;;;9.02;4.05;;;21.90;59.00;;;;;;5029429;28;20502;-74
2023/09/15 08:51:37;;;;;;;8.88;4.43;;;21.90;58.90;;;;;;5046567;28;20019;-76
2023/09/15 08:54:03;;;;;;;10.85;5.00;;;22.00;58.60;;;;;;5030510;28;20111;-76
2023/09/15 08:56:30;;;;;;;10.20;4.45;;;22.20;58.50;;;;;;5031872;28;20358;-77
2023/09/15 08:58:57;;;;;;;10.00;5.00;;;22.30;58.30;;;;;;5014072;28;20442;-76
2023/09/15 09:01:23;;;;;;;8.98;4.32;;;22.50;58.00;;;;;;5032338;28;20389;-76
2023/09/15 09:03:48;;;;;;;11.20;5.50;;;22.70;57.70;;;;;;5031111;28;20110;-75
2023/09/15 09:06:15;;;;;;;9.98;4.45;;;22.70;57.40;;;;;;5045092;28;20068;-76
2023/09/15 09:08:47;;;;;;;10.25;4.20;;;22.70;57.40;;;;;;5030705;28;20047;-79
2023/09/15 09:11:14;;;;;;;9.75;4.65;;;22.70;57.40;;;;;;5029682;28;20022;-78
2023/09/15 09:13:40;;;;;;;8.88;4.93;;;22.70;57.50;;;;;;5033077;28;20021;-78
2023/09/15 09:16:10;;;;;;;8.73;4.40;;;22.80;58.30;;;;;;5033768;28;20123;-77
2023/09/15 09:18:36;;;;;;;9.90;5.32;;;22.80;57.60;;;;;;5035424;28;20063;-77
2023/09/15 09:21:03;;;;;;;9.85;5.00;;;22.90;57.60;;;;;;5045069;28;20088;-79
2023/09/15 09:23:29;;;;;;;9.15;4.40;;;22.80;57.50;;;;;;5035134;28;20339;-79
2023/09/15 09:25:55;;;;;;;9.80;4.13;;;22.70;57.50;;;;;;5035162;28;20044;-80
2023/09/15 09:28:21;;;;;;;10.48;4.43;;;22.70;57.60;;;;;;5035172;28;20060;-79
2023/09/15 09:30:47;;;;;;;10.60;4.00;;;22.80;57.50;;;;;;5051500;28;20021;-80
2023/09/15 09:33:12;;;;;;;9.40;4.43;;;23.10;57.30;;;;;;5036239;28;20113;-80
2023/09/15 09:35:39;;;;;;;8.80;4.07;;;23.20;56.90;;;;;;5032076;28;20061;-80
2023/09/15 09:38:04;;;;;;;7.95;3.50;;;23.40;56.70;;;;;;5034823;28;20109;-76
2023/09/15 09:40:33;;;;;;;7.53;3.50;;;23.50;56.40;;;;;;5036290;28;20108;-80
2023/09/15 09:42:59;;;;;;;7.10;3.17;;;23.70;56.00;;;;;;5031249;28;20040;-76
2023/09/15 09:45:30;;;;;;;8.63;3.25;;;23.90;55.90;;;;;;5035826;28;20025;-79
2023/09/15 09:47:56;;;;;;;7.25;3.22;;;24.00;55.60;;;;;;5045594;28;20025;-79
2023/09/15 09:50:22;;;;;;;9.50;3.80;;;24.10;55.60;;;;;;5036097;28;20030;-79
2023/09/15 09:52:50;;;;;;;7.25;3.30;;;24.20;55.20;;;;;;5034900;28;20075;-80
2023/09/15 09:55:16;;;;;;;9.25;3.45;;;24.30;54.90;;;;;;5019233;28;20462;-80
2023/09/15 09:57:42;;;;;;;8.75;3.47;;;24.30;54.50;;;;;;5035661;28;20021;-80
2023/09/15 10:00:09;;;;;;;7.70;3.08;;;24.40;54.30;;;;;;5034756;28;20056;-79
2023/09/15 10:02:42;;;;;;;8.00;3.15;;;24.50;54.00;;;;;;5034541;28;20072;-80
2023/09/15 10:05:08;;;;;;;7.03;3.13;;;24.60;53.70;;;;;;5035241;28;20045;-80
2023/09/15 10:07:35;;;;;;;7.75;3.33;;;24.70;53.70;;;;;;5034713;28;20037;-80
2023/09/15 10:10:03;;;;;;;7.10;2.85;;;24.70;53.60;;;;;;5032736;28;20091;-80
2023/09/15 10:12:29;;;;;;;7.47;3.67;;;24.90;53.50;;;;;;5035153;28;20057;-80
2023/09/15 10:14:56;;;;;;;9.05;3.75;;;25.00;53.30;;;;;;5027579;28;20358;-75
2023/09/15 10:17:23;;;;;;;8.27;3.15;;;25.10;53.00;;;;;;5032429;28;20017;-77
2023/09/15 10:19:51;;;;;;;6.25;2.95;;;25.10;52.60;;;;;;5048693;28;20113;-77
2023/09/15 10:22:17;;;;;;;6.97;2.80;;;25.20;52.70;;;;;;5032672;28;20528;-78
2023/09/15 10:24:55;;;;;;;7.22;2.95;;;25.30;52.60;;;;;;5040325;28;20056;-78
2023/09/15 10:27:21;;;;;;;8.68;3.17;;;25.30;52.20;;;;;;5035238;28;20117;-78
2023/09/15 10:29:47;;;;;;;7.80;2.83;;;25.30;51.90;;;;;;5017148;28;20422;-78
2023/09/15 10:32:16;;;;;;;8.82;3.58;;;25.40;52.00;;;;;;5031817;28;20021;-78
2023/09/15 10:34:47;;;;;;;7.13;3.42;;;25.40;51.70;;;;;;5012123;28;20541;-79
2023/09/15 10:37:13;;;;;;;7.07;3.40;;;25.50;51.50;;;;;;5043842;28;20107;-79
2023/09/15 10:39:41;;;;;;;7.20;3.15;;;25.50;51.20;;;;;;5030782;28;20049;-79
2023/09/15 10:42:09;;;;;;;7.85;3.38;;;25.60;51.00;;;;;;5028955;28;20031;-79
2023/09/15 10:44:35;;;;;;;8.02;3.55;;;25.60;50.80;;;;;;5026581;28;20111;-78
2023/09/15 10:47:01;;;;;;;9.32;3.38;;;25.70;50.70;;;;;;5028985;28;20021;-78
2023/09/15 10:49:27;;;;;;;7.07;3.00;;;25.70;50.50;;;;;;5043975;28;20030;-79
2023/09/15 10:51:57;;;;;;;5.97;2.80;;;25.70;50.40;;;;;;5028812;28;20021;-79
2023/09/15 10:54:41;;;;;;;8.87;3.10;;;25.70;50.40;;;;;;5010325;28;20044;-79
2023/09/15 10:57:08;;;;;;;8.50;3.72;;;25.70;50.40;;;;;;5010093;28;20108;-79
2023/09/15 10:59:35;;;;;;;9.00;3.25;;;25.70;50.30;;;;;;5013033;28;20410;-79
2023/09/15 11:02:02;;;;;;;7.43;2.95;;;25.80;50.40;;;;;;5014171;28;20340;-79
2023/09/15 11:04:28;;;;;;;8.00;3.20;;;25.70;50.20;;;;;;5010891;28;20505;-79
2023/09/15 11:06:55;;;;;;;7.80;3.42;;;25.80;50.20;;;;;;5009441;28;20096;-79
2023/09/15 11:09:21;;;;;;;7.70;3.05;;;25.70;50.10;;;;;;5010812;28;20044;-79
2023/09/15 11:11:49;;;;;;;6.90;3.38;;;25.80;50.00;;;;;;5026512;28;20049;-79
2023/09/15 11:14:16;;;;;;;9.02;3.67;;;25.80;49.50;;;;;;5010523;28;20044;-79
2023/09/15 11:16:46;;;;;;;8.10;4.10;;;25.80;49.10;;;;;;5006508;28;20038;-80
2023/09/15 11:19:18;;;;;;;7.95;3.53;;;25.70;48.70;;;;;;5009607;28;20048;-80
2023/09/15 11:21:47;;;;;;;7.90;3.05;;;25.60;48.60;;;;;;5023028;28;20044;-79
2023/09/15 11:24:14;;;;;;;8.43;3.40;;;25.60;49.00;;;;;;5011503;28;20026;-80
2023/09/15 11:26:53;;;;;;;7.50;3.10;;;25.60;49.10;;;;;;5011197;28;20036;-83
2023/09/15 11:29:25;;;;;;;7.32;3.15;;;25.60;49.10;;;;;;5006135;28;20030;-81
2023/09/15 11:31:53;;;;;;;6.95;3.08;;;25.60;49.50;;;;;;5007613;28;20026;-81
2023/09/15 11:34:19;;;;;;;8.55;2.80;;;25.60;49.10;;;;;;5008314;28;20019;-81
2023/09/15 11:36:45;;;;;;;7.72;3.10;;;25.60;49.40;;;;;;5023201;28;20528;-82
2023/09/15 11:39:12;;;;;;;6.97;3.30;;;25.60;49.50;;;;;;5010330;28;20525;-81
2023/09/15 11:41:53;;;;;;;7.20;2.92;;;25.70;49.50;;;;;;5020145;28;20033;-81
2023/09/15 11:44:31;;;;;;;;;;;25.70;49.00;;;;;;5002778;28;20033;-81
2023/09/15 11:47:00;;;;;;;7.43;3.20;;;25.60;49.30;;;;;;5017594;28;19913;-81
2023/09/15 11:49:27;;;;;;;7.63;3.10;;;25.60;49.40;;;;;;5006815;28;20036;-80
2023/09/15 11:51:57;;;;;;;7.95;2.88;;;25.70;49.70;;;;;;5006866;28;20443;-81
2023/09/15 11:54:24;;;;;;;7.63;2.97;;;25.60;49.60;;;;;;5033065;28;20060;-81
2023/09/15 11:56:50;;;;;;;8.00;2.95;;;25.60;49.70;;;;;;5033283;28;20033;-81
2023/09/15 11:59:18;;;;;;;5.93;2.65;;;25.50;49.80;;;;;;5034335;28;20037;-81
2023/09/15 12:01:46;;;;;;;7.07;2.97;;;25.60;50.00;;;;;;5034034;28;20033;-82
2023/09/15 12:04:13;;;;;;;7.80;2.70;;;25.50;49.60;;;;;;5046747;28;20053;-81
2023/09/15 12:06:40;;;;;;;5.93;2.80;;;25.50;49.60;;;;;;5033198;28;20079;-80
2023/09/15 12:09:06;;;;;;;6.30;2.75;;;25.40;49.80;;;;;;5035145;28;20037;-69
2023/09/15 12:11:33;;;;;;;7.75;3.53;;;25.40;50.00;;;;;;5033911;28;20037;-69
2023/09/15 12:14:06;;;;;;;6.57;3.33;;;25.40;50.00;;;;;;5031436;28;20096;-69
2023/09/15 12:16:33;;;;;;;7.63;3.78;;;25.30;50.10;;;;;;5027710;28;20017;-68
2023/09/15 12:19:00;;;;;;;8.65;3.50;;;25.20;50.00;;;;;;5021990;28;20026;-68
2023/09/15 12:21:28;;;;;;;7.65;3.63;;;25.20;50.20;;;;;;5030064;28;20078;-69
2023/09/15 12:24:09;;;;;;;7.93;3.47;;;25.10;50.30;;;;;;5028434;28;20030;-69
2023/09/15 12:26:37;;;;;;;9.02;2.80;;;25.10;50.10;;;;;;5022797;28;20026;-69
2023/09/15 12:29:03;;;;;;;6.53;3.00;;;25.00;50.40;;;;;;5028616;28;20123;-69
2023/09/15 12:31:29;;;;;;;8.77;3.28;;;24.90;50.20;;;;;;5029961;28;20064;-72
2023/09/15 12:33:55;;;;;;;7.55;3.10;;;24.80;50.30;;;;;;5025406;28;20082;-67
2023/09/15 12:36:22;;;;;;;7.10;3.20;;;24.70;50.60;;;;;;5030346;28;20020;-68
2023/09/15 12:38:48;;;;;;;7.13;2.67;;;24.70;50.80;;;;;;5022550;28;20028;-68
2023/09/15 12:41:14;;;;;;;9.68;2.72;;;24.70;50.80;;;;;;5025485;28;20040;-67
2023/09/15 12:43:41;;;;;;;7.10;2.85;;;24.50;50.70;;;;;;5028889;28;20026;-70